createdAt,value
2023-05-22T00:00:42.811Z,101026.14
2023-05-22T00:03:28.989Z,101029.20
2023-05-22T00:06:01.567Z,101025.64
2023-05-22T00:08:33.764Z,101007.23
2023-05-22T00:11:06.180Z,101018.57
2023-05-22T00:13:38.745Z,101017.27
2023-05-22T00:16:11.342Z,101018.88
2023-05-22T00:18:44.823Z,101017.27
2023-05-22T00:21:18.668Z,101016.00
2023-05-22T00:23:51.032Z,101016.23
2023-05-22T00:26:24.074Z,101018.23
2023-05-22T00:28:56.254Z,101015.91
2023-05-22T00:31:29.026Z,101020.80
2023-05-22T00:34:01.241Z,101020.80
2023-05-22T00:36:33.602Z,101018.31
2023-05-22T00:39:06.369Z,101017.27
2023-05-22T00:41:39.053Z,101017.27
2023-05-22T00:44:11.875Z,101016.93
2023-05-22T00:46:44.415Z,101019.75
2023-05-22T00:49:16.873Z,101013.25
2023-05-22T00:51:49.577Z,101013.08
2023-05-22T00:54:22.293Z,101012.83
2023-05-22T00:56:54.847Z,101016.20
2023-05-22T00:59:27.861Z,101013.94
2023-05-22T01:02:01.696Z,101010.39
2023-05-22T01:04:35.290Z,101009.20
2023-05-22T01:07:07.894Z,101007.02
2023-05-22T01:09:40.432Z,101004.93
2023-05-22T01:12:25.646Z,101002.35
2023-05-22T01:15:00.931Z,100999.70
2023-05-22T01:17:41.122Z,100998.08
2023-05-22T01:20:22.324Z,101001.86
2023-05-22T01:23:17.420Z,101002.89
2023-05-22T01:26:15.149Z,100982.05
2023-05-22T01:29:04.949Z,101004.48
2023-05-22T01:31:40.941Z,101004.73
2023-05-22T01:34:14.106Z,101009.63
2023-05-22T01:36:49.918Z,101005.94
2023-05-22T01:39:23.929Z,101007.22
2023-05-22T01:41:58.646Z,101008.34
2023-05-22T01:44:30.996Z,101004.16
2023-05-22T01:47:05.421Z,101005.53
2023-05-22T01:49:39.030Z,101005.14
2023-05-22T01:52:18.710Z,100998.96
2023-05-22T01:54:58.431Z,100998.48
2023-05-22T01:57:35.246Z,100995.83
2023-05-22T02:00:14.004Z,101000.39
2023-05-22T02:02:54.732Z,101000.23
2023-05-22T02:05:30.253Z,100996.30
2023-05-22T02:08:04.808Z,100998.38
2023-05-22T02:10:39.183Z,100999.65
2023-05-22T02:13:15.566Z,100996.05
2023-05-22T02:15:49.436Z,100997.50
2023-05-22T02:18:22.394Z,100999.02
2023-05-22T02:20:55.197Z,100996.30
2023-05-22T02:23:29.856Z,100990.91
2023-05-22T02:26:02.657Z,100991.63
2023-05-22T02:28:35.351Z,100991.55
2023-05-22T02:31:07.998Z,100989.86
2023-05-22T02:33:40.990Z,100989.86
2023-05-22T02:36:14.640Z,100988.25
2023-05-22T02:38:46.646Z,100984.23
2023-05-22T02:41:19.258Z,100983.11
2023-05-22T02:43:51.442Z,100981.00
2023-05-22T02:46:23.928Z,100976.18
2023-05-22T02:48:56.383Z,100972.64
2023-05-22T02:51:29.110Z,100978.23
2023-05-22T02:54:01.429Z,100965.48
2023-05-22T02:56:33.792Z,100974.48
2023-05-22T02:59:06.595Z,100972.88
2023-05-22T03:01:39.847Z,100969.33
2023-05-22T03:04:14.159Z,100968.84
2023-05-22T03:06:47.698Z,100965.00
2023-05-22T03:09:20.361Z,100965.64
2023-05-22T03:11:52.745Z,100964.45
2023-05-22T03:14:24.938Z,100965.08
2023-05-22T03:16:59.051Z,100959.05
2023-05-22T03:19:31.740Z,100963.79
2023-05-22T03:22:04.364Z,100960.73
2023-05-22T03:24:37.040Z,100962.67
2023-05-22T03:27:09.563Z,100959.92
2023-05-22T03:29:44.815Z,100963.21
2023-05-22T03:32:17.382Z,100967.39
2023-05-22T03:34:49.754Z,100971.88
2023-05-22T03:37:22.236Z,100968.19
2023-05-22T03:39:54.487Z,100968.27
2023-05-22T03:42:31.209Z,100970.69
2023-05-22T03:45:04.154Z,100974.85
2023-05-22T03:47:36.899Z,100973.96
2023-05-22T03:50:10.345Z,100975.83
2023-05-22T03:52:42.899Z,100980.98
2023-05-22T03:55:16.364Z,100977.84
2023-05-22T03:57:48.871Z,100965.84
2023-05-22T04:00:24.251Z,100976.08
2023-05-22T04:02:58.865Z,100975.36
2023-05-22T04:05:33.462Z,100974.80
2023-05-22T04:08:06.098Z,100975.86
2023-05-22T04:10:39.171Z,100973.30
2023-05-22T04:13:11.673Z,100971.08
2023-05-22T04:15:47.844Z,100970.91
2023-05-22T04:18:19.009Z,100968.12
2023-05-22T04:20:52.266Z,100965.48
2023-05-22T04:23:24.444Z,100966.45
2023-05-22T04:25:56.865Z,100965.72
2023-05-22T04:28:30.368Z,100967.02
2023-05-22T04:31:06.673Z,100964.77
2023-05-22T04:33:40.322Z,100970.82
2023-05-22T04:36:13.347Z,100970.65
2023-05-22T04:38:47.743Z,100969.29
2023-05-22T04:41:22.706Z,100962.95
2023-05-22T04:43:56.862Z,100968.16
2023-05-22T04:46:29.836Z,100967.05
2023-05-22T04:49:03.409Z,100965.53
2023-05-22T04:51:35.645Z,100968.58
2023-05-22T04:54:08.158Z,100964.89
2023-05-22T04:56:40.829Z,100960.86
2023-05-22T04:59:16.524Z,100956.95
2023-05-22T05:01:50.499Z,100956.46
2023-05-22T05:04:23.208Z,100953.15
2023-05-22T05:06:57.615Z,100955.00
2023-05-22T05:09:29.997Z,100957.91
2023-05-22T05:12:04.193Z,100961.77
2023-05-22T05:14:36.437Z,100966.89
2023-05-22T05:17:08.921Z,100965.11
2023-05-22T05:19:41.438Z,100971.15
2023-05-22T05:22:15.077Z,100969.38
2023-05-22T05:24:48.741Z,100970.59
2023-05-22T05:27:21.622Z,100971.55
2023-05-22T05:29:54.439Z,100974.77
2023-05-22T05:32:34.658Z,100973.00
2023-05-22T05:35:36.834Z,100975.09
2023-05-22T05:38:14.422Z,100973.39
2023-05-22T05:40:49.511Z,100974.92
2023-05-22T05:43:23.376Z,100971.46
2023-05-22T05:45:56.248Z,100977.79
2023-05-22T05:48:28.819Z,100977.39
2023-05-22T05:51:01.809Z,100979.14
2023-05-22T05:53:39.253Z,100979.52
2023-05-22T05:56:12.394Z,100973.96
2023-05-22T05:58:45.288Z,100977.85
2023-05-22T06:01:36.993Z,100960.73
2023-05-22T06:04:09.908Z,100973.94
2023-05-22T06:06:44.384Z,100971.52
2023-05-22T06:09:31.028Z,100972.08
2023-05-22T06:12:17.165Z,100968.96
2023-05-22T06:14:50.354Z,100960.41
2023-05-22T06:17:23.160Z,100960.77
2023-05-22T06:19:55.942Z,100959.73
2023-05-22T06:22:29.333Z,100957.35
2023-05-22T06:25:05.420Z,100960.45
2023-05-22T06:27:38.818Z,100960.15
2023-05-22T06:30:14.791Z,100963.72
2023-05-22T06:32:47.411Z,100963.15
2023-05-22T06:35:22.681Z,100962.58
2023-05-22T06:37:56.120Z,100965.02
2023-05-22T06:40:29.121Z,100965.20
2023-05-22T06:43:06.844Z,100952.88
2023-05-22T06:45:45.454Z,100962.39
2023-05-22T06:48:37.678Z,100965.56
2023-05-22T06:51:24.437Z,100964.74
2023-05-22T06:53:58.383Z,100965.31
2023-05-22T06:56:33.471Z,100963.74
2023-05-22T06:59:12.926Z,100962.77
2023-05-22T07:02:08.923Z,100961.71
2023-05-22T07:04:55.319Z,100964.84
2023-05-22T07:07:42.353Z,100960.80
2023-05-22T07:10:15.262Z,100957.01
2023-05-22T07:12:47.428Z,100952.02
2023-05-22T07:15:20.112Z,100952.99
2023-05-22T07:17:56.859Z,100954.79
2023-05-22T07:20:29.235Z,100956.89
2023-05-22T07:23:24.432Z,100960.61
2023-05-22T07:25:58.497Z,100961.61
2023-05-22T07:28:34.240Z,100962.20
2023-05-22T07:31:11.441Z,100961.34
2023-05-22T07:33:43.705Z,100966.91
2023-05-22T07:36:18.162Z,100966.96
2023-05-22T07:38:50.733Z,100961.96
2023-05-22T07:41:24.332Z,100965.41
2023-05-22T07:43:56.442Z,100964.11
2023-05-22T07:46:32.762Z,100960.34
2023-05-22T07:49:12.425Z,100958.52
2023-05-22T07:51:46.417Z,100957.98
2023-05-22T07:54:19.401Z,100956.90
2023-05-22T07:56:56.260Z,100956.52
2023-05-22T07:59:27.561Z,100956.89
2023-05-22T08:02:02.286Z,100960.86
2023-05-22T08:04:35.630Z,100949.97
2023-05-22T08:07:08.395Z,100963.23
2023-05-22T08:09:41.089Z,100963.11
2023-05-22T08:12:14.032Z,100957.34
2023-05-22T08:14:46.524Z,100953.45
2023-05-22T08:17:19.246Z,100956.27
2023-05-22T08:19:51.582Z,100955.91
2023-05-22T08:22:23.875Z,100950.96
2023-05-22T08:24:56.033Z,100955.02
2023-05-22T08:27:28.169Z,100959.91
2023-05-22T08:30:00.620Z,100953.93
2023-05-22T08:32:33.286Z,100953.63
2023-05-22T08:35:06.180Z,100958.77
2023-05-22T08:37:38.541Z,100949.80
2023-05-22T08:40:13.916Z,100947.09
2023-05-22T08:42:47.971Z,100947.02
2023-05-22T08:45:20.870Z,100943.55
2023-05-22T08:47:56.293Z,100944.25
2023-05-22T08:50:28.705Z,100943.82
2023-05-22T08:53:03.428Z,100938.91
2023-05-22T08:55:34.499Z,100929.61
2023-05-22T08:58:07.478Z,100937.76
2023-05-22T09:00:40.544Z,100934.87
2023-05-22T09:03:15.289Z,100927.30
2023-05-22T09:05:47.524Z,100927.93
2023-05-22T09:08:21.247Z,100926.48
2023-05-22T09:10:55.157Z,100922.64
2023-05-22T09:13:29.811Z,100921.62
2023-05-22T09:16:09.248Z,100917.48
2023-05-22T09:18:42.522Z,100915.25
2023-05-22T09:21:28.667Z,100903.16
2023-05-22T09:24:03.939Z,100913.70
2023-05-22T09:26:37.181Z,100910.59
2023-05-22T09:29:09.947Z,100908.43
2023-05-22T09:31:46.598Z,100908.52
2023-05-22T09:34:19.256Z,100908.79
2023-05-22T09:36:51.663Z,100908.73
2023-05-22T09:39:24.059Z,100910.43
2023-05-22T09:42:02.821Z,100907.28
2023-05-22T09:44:35.501Z,100904.83
2023-05-22T09:47:09.851Z,100902.70
2023-05-22T09:49:44.672Z,100900.35
2023-05-22T09:52:19.329Z,100898.98
2023-05-22T09:54:51.387Z,100897.76
2023-05-22T09:57:25.619Z,100899.56
2023-05-22T09:59:59.236Z,100896.43
2023-05-22T10:02:33.711Z,100896.42
2023-05-22T10:05:10.236Z,100890.00
2023-05-22T10:07:48.622Z,100887.56
2023-05-22T10:10:24.398Z,100881.09
2023-05-22T10:13:02.424Z,100872.58
2023-05-22T10:15:35.878Z,100885.30
2023-05-22T10:18:09.013Z,100881.75
2023-05-22T10:20:42.322Z,100875.16
2023-05-22T10:23:16.343Z,100881.59
2023-05-22T10:25:50.042Z,100876.16
2023-05-22T10:28:27.200Z,100877.08
2023-05-22T10:31:06.249Z,100874.52
2023-05-22T10:34:00.205Z,100874.30
2023-05-22T10:36:47.623Z,100871.42
2023-05-22T10:39:39.008Z,100871.36
2023-05-22T10:42:16.444Z,100858.14
2023-05-22T10:44:50.085Z,100864.96
2023-05-22T10:47:22.724Z,100856.08
2023-05-22T10:50:07.825Z,100845.55
2023-05-22T10:52:41.087Z,100853.18
2023-05-22T10:55:14.410Z,100835.81
2023-05-22T10:57:46.935Z,100843.66
2023-05-22T11:00:21.249Z,100841.05
2023-05-22T11:03:17.064Z,100840.48
2023-05-22T11:05:56.220Z,100840.77
2023-05-22T11:08:41.237Z,100837.35
2023-05-22T11:11:15.195Z,100823.08
2023-05-22T11:13:54.383Z,100834.19
2023-05-22T11:16:26.858Z,100838.91
2023-05-22T11:19:21.824Z,100832.55
2023-05-22T11:22:01.293Z,100832.24
2023-05-22T11:24:38.607Z,100830.67
2023-05-22T11:27:12.107Z,100823.92
2023-05-22T11:29:46.425Z,100823.62
2023-05-22T11:32:21.002Z,100823.83
2023-05-22T11:34:51.731Z,100823.61
2023-05-22T11:37:24.354Z,100813.25
2023-05-22T11:39:59.636Z,100816.29
2023-05-22T11:42:31.986Z,100815.39
2023-05-22T11:45:05.102Z,100809.77
2023-05-22T11:47:37.884Z,100813.31
2023-05-22T11:50:15.049Z,100810.49
2023-05-22T11:52:50.924Z,100800.58
2023-05-22T11:55:24.112Z,100798.70
2023-05-22T11:57:57.745Z,100798.41
2023-05-22T12:00:31.799Z,100795.38
2023-05-22T12:03:04.271Z,100793.95
2023-05-22T12:05:36.766Z,100790.87
2023-05-22T12:08:09.181Z,100785.61
2023-05-22T12:10:47.376Z,100780.97
2023-05-22T12:13:25.499Z,100778.24
2023-05-22T12:16:01.356Z,100781.80
2023-05-22T12:18:39.784Z,100780.56
2023-05-22T12:21:13.268Z,100767.80
2023-05-22T12:23:52.586Z,100780.80
2023-05-22T12:26:24.905Z,100772.16
2023-05-22T12:28:58.456Z,100767.46
2023-05-22T12:31:35.998Z,100770.32
2023-05-22T12:34:09.523Z,100765.23
2023-05-22T12:36:44.303Z,100763.85
2023-05-22T12:39:17.661Z,100763.72
2023-05-22T12:41:50.109Z,100743.73
2023-05-22T12:44:22.430Z,100753.52
2023-05-22T12:46:55.063Z,100738.02
2023-05-22T12:49:27.402Z,100747.77
2023-05-22T12:51:59.836Z,100751.33
2023-05-22T12:54:32.081Z,100748.48
2023-05-22T12:57:04.505Z,100744.10
2023-05-22T12:59:37.392Z,100739.98
2023-05-22T13:02:10.882Z,100738.48
2023-05-22T13:04:43.287Z,100736.03
2023-05-22T13:07:16.133Z,100736.80
2023-05-22T13:09:48.224Z,100737.55
2023-05-22T13:12:20.630Z,100742.20
2023-05-22T13:14:53.019Z,100736.95
2023-05-22T13:17:25.476Z,100731.53
2023-05-22T13:19:59.010Z,100728.31
2023-05-22T13:22:31.950Z,100732.27
2023-05-22T13:25:04.915Z,100725.73
2023-05-22T13:27:37.277Z,100728.66
2023-05-22T13:30:11.082Z,100725.89
2023-05-22T13:32:43.627Z,100725.50
2023-05-22T13:35:16.325Z,100721.62
2023-05-22T13:37:48.574Z,100715.89
2023-05-22T13:40:21.050Z,100716.62
2023-05-22T13:42:54.086Z,100719.77
2023-05-22T13:45:27.297Z,100712.52
2023-05-22T13:47:59.813Z,100710.98
2023-05-22T13:50:32.417Z,100714.66
2023-05-22T13:53:18.355Z,100711.09
2023-05-22T13:55:56.457Z,100709.52
2023-05-22T13:58:28.569Z,100706.56
2023-05-22T14:01:00.717Z,100705.39
2023-05-22T14:03:32.842Z,100702.20
2023-05-22T14:06:05.202Z,100706.38
2023-05-22T14:08:37.480Z,100703.23
2023-05-22T14:11:09.676Z,100700.67
2023-05-22T14:13:41.934Z,100698.30
2023-05-22T14:16:14.350Z,100690.30
2023-05-22T14:18:46.875Z,100695.59
2023-05-22T14:21:20.230Z,100676.45
2023-05-22T14:23:52.739Z,100690.77
2023-05-22T14:26:25.483Z,100691.79
2023-05-22T14:28:58.033Z,100687.52
2023-05-22T14:31:31.440Z,100684.56
2023-05-22T14:34:04.124Z,100683.14
2023-05-22T14:36:36.374Z,100683.72
2023-05-22T14:39:08.895Z,100676.95
2023-05-22T14:41:41.911Z,100684.65
2023-05-22T14:44:14.126Z,100675.42
2023-05-22T14:46:46.817Z,100669.33
2023-05-22T14:49:19.094Z,100670.08
2023-05-22T14:51:51.813Z,100669.55
2023-05-22T14:54:24.145Z,100669.29
2023-05-22T14:56:56.606Z,100673.61
2023-05-22T14:59:29.030Z,100667.88
2023-05-22T15:02:01.552Z,100663.55
2023-05-22T15:04:33.875Z,100664.82
2023-05-22T15:07:08.707Z,100660.44
2023-05-22T15:09:41.522Z,100649.16
2023-05-22T15:12:13.799Z,100648.55
2023-05-22T15:14:46.038Z,100650.34
2023-05-22T15:17:18.771Z,100632.04
2023-05-22T15:19:50.909Z,100643.81
2023-05-22T15:22:23.961Z,100641.95
2023-05-22T15:25:07.455Z,100640.23
2023-05-22T15:27:41.565Z,100640.77
2023-05-22T15:30:16.120Z,100631.11
2023-05-22T15:32:48.450Z,100628.71
2023-05-22T15:35:20.798Z,100631.33
2023-05-22T15:37:53.239Z,100629.73
2023-05-22T15:40:25.783Z,100621.07
2023-05-22T15:42:58.085Z,100622.28
2023-05-22T15:45:30.668Z,100623.56
2023-05-22T15:48:04.912Z,100618.20
2023-05-22T15:50:37.477Z,100613.68
2023-05-22T15:53:09.981Z,100606.95
2023-05-22T15:55:42.623Z,100606.58
2023-05-22T15:58:14.969Z,100610.55
2023-05-22T16:00:47.402Z,100604.55
2023-05-22T16:03:19.608Z,100608.08
2023-05-22T16:05:51.904Z,100592.64
2023-05-22T16:08:24.066Z,100597.45
2023-05-22T16:11:00.808Z,100592.57
2023-05-22T16:13:33.662Z,100581.58
2023-05-22T16:16:06.202Z,100590.02
2023-05-22T16:18:38.638Z,100588.41
2023-05-22T16:21:11.066Z,100587.79
2023-05-22T16:23:43.434Z,100588.55
2023-05-22T16:26:16.287Z,100585.68
2023-05-22T16:28:48.573Z,100586.84
2023-05-22T16:31:20.917Z,100582.70
2023-05-22T16:33:54.068Z,100581.08
2023-05-22T16:36:27.264Z,100582.42
2023-05-22T16:38:59.755Z,100581.60
2023-05-22T16:41:32.324Z,100579.73
2023-05-22T16:44:04.518Z,100569.81
2023-05-22T16:46:36.857Z,100580.16
2023-05-22T16:49:08.966Z,100582.07
2023-05-22T16:51:41.312Z,100581.84
2023-05-22T16:54:13.936Z,100578.55
2023-05-22T16:56:46.856Z,100561.00
2023-05-22T16:59:20.021Z,100576.77
2023-05-22T17:01:52.629Z,100575.66
2023-05-22T17:04:24.820Z,100573.45
2023-05-22T17:06:57.950Z,100573.70
2023-05-22T17:09:30.165Z,100577.55
2023-05-22T17:12:03.172Z,100568.77
2023-05-22T17:14:35.482Z,100580.02
2023-05-22T17:17:08.308Z,100578.23
2023-05-22T17:19:40.908Z,100577.27
2023-05-22T17:22:13.238Z,100579.90
2023-05-22T17:24:46.097Z,100573.62
2023-05-22T17:27:31.984Z,100575.83
2023-05-22T17:30:09.058Z,100579.31
2023-05-22T17:32:41.455Z,100565.66
2023-05-22T17:35:13.747Z,100572.61
2023-05-22T17:37:46.185Z,100572.98
2023-05-22T17:40:18.778Z,100574.73
2023-05-22T17:42:51.150Z,100573.86
2023-05-22T17:45:23.500Z,100569.50
2023-05-22T17:47:55.822Z,100567.55
2023-05-22T17:50:28.228Z,100569.80
2023-05-22T17:53:00.548Z,100571.30
2023-05-22T17:55:32.914Z,100569.23
2023-05-22T17:58:05.653Z,100574.92
2023-05-22T18:00:38.147Z,100574.41
2023-05-22T18:03:10.439Z,100573.98
2023-05-22T18:05:43.569Z,100578.77
2023-05-22T18:08:15.950Z,100578.55
2023-05-22T18:10:48.228Z,100583.55
2023-05-22T18:13:20.842Z,100578.60
2023-05-22T18:15:53.176Z,100580.61
2023-05-22T18:18:25.578Z,100577.00
2023-05-22T18:20:58.099Z,100579.54
2023-05-22T18:23:30.490Z,100575.29
2023-05-22T18:26:03.679Z,100574.03
2023-05-22T18:28:36.293Z,100575.46
2023-05-22T18:31:08.687Z,100579.66
2023-05-22T18:33:44.839Z,100573.32
2023-05-22T18:36:17.668Z,100573.25
2023-05-22T18:38:50.099Z,100571.89
2023-05-22T18:41:22.415Z,100572.60
2023-05-22T18:43:54.647Z,100575.33
2023-05-22T18:46:27.037Z,100569.70
2023-05-22T18:48:59.539Z,100574.00
2023-05-22T18:51:31.805Z,100574.15
2023-05-22T18:54:04.109Z,100578.05
2023-05-22T18:56:36.847Z,100577.89
2023-05-22T18:59:09.672Z,100564.93
2023-05-22T19:01:42.333Z,100577.77
2023-05-22T19:04:14.814Z,100578.23
2023-05-22T19:06:47.070Z,100573.04
2023-05-22T19:09:19.521Z,100580.45
2023-05-22T19:11:51.665Z,100581.74
2023-05-22T19:14:23.906Z,100584.00
2023-05-22T19:16:56.261Z,100583.59
2023-05-22T19:19:28.610Z,100583.27
2023-05-22T19:22:01.217Z,100581.34
2023-05-22T19:24:33.821Z,100581.70
2023-05-22T19:27:07.029Z,100579.79
2023-05-22T19:29:39.719Z,100580.92
2023-05-22T19:32:11.935Z,100581.37
2023-05-22T19:34:44.558Z,100565.39
2023-05-22T19:37:16.908Z,100578.27
2023-05-22T19:39:49.028Z,100575.03
2023-05-22T19:42:21.436Z,100578.71
2023-05-22T19:44:53.768Z,100567.83
2023-05-22T19:47:26.221Z,100578.46
2023-05-22T19:49:58.678Z,100570.55
2023-05-22T19:52:30.852Z,100576.03
2023-05-22T19:55:03.201Z,100576.27
2023-05-22T19:57:35.688Z,100577.48
2023-05-22T20:00:11.056Z,100577.48
2023-05-22T20:02:43.647Z,100576.41
2023-05-22T20:05:16.231Z,100571.95
2023-05-22T20:07:48.782Z,100570.48
2023-05-22T20:10:22.137Z,100568.64
2023-05-22T20:12:55.528Z,100568.98
2023-05-22T20:15:28.147Z,100566.55
2023-05-22T20:18:02.706Z,100572.04
2023-05-22T20:20:35.264Z,100574.33
2023-05-22T20:23:07.617Z,100569.42
2023-05-22T20:25:40.014Z,100571.15
2023-05-22T20:28:12.684Z,100569.55
2023-05-22T20:30:45.975Z,100556.60
2023-05-22T20:33:18.771Z,100569.94
2023-05-22T20:35:53.346Z,100568.98
2023-05-22T20:38:26.027Z,100568.59
2023-05-22T20:40:59.733Z,100566.78
2023-05-22T20:43:32.206Z,100567.38
2023-05-22T20:46:04.403Z,100567.91
2023-05-22T20:48:36.784Z,100567.33
2023-05-22T20:51:10.228Z,100568.83
2023-05-22T20:53:43.006Z,100569.31
2023-05-22T20:56:15.220Z,100570.73
2023-05-22T20:58:47.574Z,100567.71
2023-05-22T21:01:20.296Z,100572.73
2023-05-22T21:03:52.764Z,100572.48
2023-05-22T21:06:25.307Z,100576.66
2023-05-22T21:09:01.665Z,100575.17
2023-05-22T21:11:34.192Z,100574.92
2023-05-22T21:14:06.580Z,100569.92
2023-05-22T21:16:40.230Z,100568.33
2023-05-22T21:19:12.692Z,100567.86
2023-05-22T21:21:44.808Z,100568.91
2023-05-22T21:24:16.991Z,100569.20
2023-05-22T21:26:49.442Z,100565.46
2023-05-22T21:29:21.872Z,100567.06
2023-05-22T21:31:54.434Z,100563.56
2023-05-22T21:34:27.155Z,100560.89
2023-05-22T21:36:59.511Z,100558.95
2023-05-22T21:39:31.917Z,100559.50
2023-05-22T21:42:06.138Z,100554.19
2023-05-22T21:44:38.649Z,100551.11
2023-05-22T21:47:10.787Z,100551.90
2023-05-22T21:49:43.334Z,100553.30
2023-05-22T21:52:16.310Z,100551.20
2023-05-22T21:54:48.542Z,100550.69
2023-05-22T21:57:20.805Z,100543.02
2023-05-22T21:59:53.148Z,100548.86
2023-05-22T22:02:25.680Z,100551.39
2023-05-22T22:04:57.817Z,100554.32
2023-05-22T22:07:29.900Z,100553.16
2023-05-22T22:10:02.695Z,100552.16
2023-05-22T22:12:34.810Z,100549.22
2023-05-22T22:15:08.490Z,100547.84
2023-05-22T22:17:41.747Z,100540.72
2023-05-22T22:20:14.546Z,100539.55
2023-05-22T22:22:46.858Z,100540.72
2023-05-22T22:25:19.177Z,100539.64
2023-05-22T22:27:51.580Z,100535.23
2023-05-22T22:30:23.969Z,100533.73
2023-05-22T22:32:56.520Z,100532.58
2023-05-22T22:35:28.914Z,100533.06
2023-05-22T22:38:01.243Z,100529.24
2023-05-22T22:40:33.582Z,100531.50
2023-05-22T22:43:05.802Z,100531.46
2023-05-22T22:45:40.147Z,100527.09
2023-05-22T22:48:12.842Z,100529.15
2023-05-22T22:50:46.939Z,100526.84
2023-05-22T22:53:19.328Z,100522.88
2023-05-22T22:55:55.334Z,100531.02
2023-05-22T22:58:27.522Z,100531.21
2023-05-22T23:00:59.863Z,100527.61
2023-05-22T23:03:32.557Z,100515.48
2023-05-22T23:06:05.000Z,100524.70
2023-05-22T23:08:37.530Z,100521.61
2023-05-22T23:11:09.901Z,100521.16
2023-05-22T23:13:43.558Z,100521.44
2023-05-22T23:16:16.407Z,100518.80
2023-05-22T23:18:48.894Z,100508.77
2023-05-22T23:21:21.491Z,100510.40
2023-05-22T23:23:53.794Z,100500.29
2023-05-22T23:26:26.254Z,100511.08
2023-05-22T23:28:59.544Z,100506.81
2023-05-22T23:31:32.050Z,100500.23
2023-05-22T23:34:04.589Z,100496.07
2023-05-22T23:36:37.241Z,100496.45
2023-05-22T23:39:09.427Z,100495.66
2023-05-22T23:41:42.316Z,100493.44
2023-05-22T23:44:14.738Z,100487.10
2023-05-22T23:46:47.728Z,100486.54
2023-05-22T23:49:19.912Z,100484.55
2023-05-22T23:51:52.179Z,100484.86
2023-05-22T23:54:24.462Z,100482.32
2023-05-22T23:56:56.655Z,100474.13
2023-05-22T23:59:28.786Z,100473.59
